Time;durP1;ratioP1;P1;durP2;ratioP2;P2;SDS_P1;SDS_P2;PMS_P1;PMS_P2;Temp;Humidity;BMP_temperature;BMP_pressure;BME280_temperature;BME280_humidity;BME280_pressure;Samples;Min_cycle;Max_cycle;Signal;HPM_P1;HPM_P2
2023/06/01 00:01:43;;;;;;;16.77;7.90;;;16.30;99.90;;;;;;4998951;28;20033;-71
2023/06/01 00:04:09;;;;;;;10.50;8.13;;;16.30;99.90;;;;;;4999938;28;20053;-71
2023/06/01 00:06:35;;;;;;;12.70;8.38;;;16.30;99.90;;;;;;4999871;28;20121;-71
2023/06/01 00:09:02;;;;;;;16.60;8.45;;;16.30;99.90;;;;;;4999644;28;20387;-71
2023/06/01 00:11:28;;;;;;;13.18;9.73;;;16.30;99.90;;;;;;4999938;28;20383;-71
2023/06/01 00:13:54;;;;;;;11.52;8.20;;;16.30;99.90;;;;;;5000034;28;20022;-70
2023/06/01 00:16:20;;;;;;;12.45;9.05;;;16.30;99.90;;;;;;4998993;28;20030;-71
2023/06/01 00:18:46;;;;;;;15.70;9.43;;;16.30;99.90;;;;;;4999481;28;20390;-71
2023/06/01 00:21:12;;;;;;;13.77;9.38;;;16.30;99.90;;;;;;4999668;28;20086;-71
2023/06/01 00:23:40;;;;;;;13.10;8.57;;;16.30;99.90;;;;;;4999551;28;20510;-71
2023/06/01 00:26:07;;;;;;;14.70;9.45;;;16.30;99.90;;;;;;4999736;28;20026;-71
2023/06/01 00:28:32;;;;;;;12.55;9.55;;;16.30;99.90;;;;;;4999599;28;20073;-71
2023/06/01 00:30:58;;;;;;;19.17;11.27;;;16.30;99.90;;;;;;4999664;28;20026;-71
2023/06/01 00:33:24;;;;;;;13.02;9.77;;;16.30;99.90;;;;;;4999107;28;20078;-71
2023/06/01 00:35:50;;;;;;;10.82;8.95;;;16.30;99.90;;;;;;4999354;28;20045;-71
2023/06/01 00:38:16;;;;;;;14.57;9.30;;;16.30;99.90;;;;;;4999443;28;20022;-71
2023/06/01 00:40:43;;;;;;;10.20;8.82;;;16.30;99.90;;;;;;4999279;28;20058;-71
2023/06/01 00:43:09;;;;;;;11.60;8.52;;;16.30;99.90;;;;;;4991028;28;20430;-71
2023/06/01 00:45:35;;;;;;;11.88;8.60;;;16.30;99.90;;;;;;4999129;28;20022;-71
2023/06/01 00:48:01;;;;;;;15.02;8.88;;;16.40;99.90;;;;;;4999235;28;20018;-71
2023/06/01 00:50:27;;;;;;;12.95;9.73;;;16.40;99.90;;;;;;4999064;28;20503;-71
2023/06/01 00:52:53;;;;;;;18.27;9.02;;;16.40;99.90;;;;;;4999479;28;20378;-71
2023/06/01 00:55:20;;;;;;;12.75;8.52;;;16.50;99.90;;;;;;4999060;28;20030;-71
2023/06/01 00:57:48;;;;;;;12.65;8.60;;;16.50;99.90;;;;;;4998859;28;20046;-72
2023/06/01 01:00:14;;;;;;;13.23;8.75;;;16.50;99.90;;;;;;4993601;28;20027;-71
2023/06/01 01:02:41;;;;;;;13.73;8.88;;;16.50;99.90;;;;;;4998920;28;20027;-71
2023/06/01 01:05:11;;;;;;;13.73;9.07;;;16.50;99.90;;;;;;5006038;28;20116;-72
2023/06/01 01:07:56;;;;;;;13.75;9.05;;;16.60;99.90;;;;;;4999082;28;20027;-71
2023/06/01 01:10:40;;;;;;;12.00;9.10;;;16.50;99.90;;;;;;4995715;28;20023;-71
2023/06/01 01:13:33;;;;;;;14.25;9.40;;;16.50;99.90;;;;;;4998663;28;20126;-71
2023/06/01 01:16:12;;;;;;;15.93;9.45;;;16.50;99.90;;;;;;4998548;28;20470;-71
2023/06/01 01:18:54;;;;;;;16.00;10.18;;;16.50;99.90;;;;;;4998485;28;20085;-71
2023/06/01 01:21:28;;;;;;;13.18;9.75;;;16.50;99.90;;;;;;4998409;28;20027;-71
2023/06/01 01:24:18;;;;;;;17.08;8.85;;;16.50;99.90;;;;;;4998733;28;20026;-71
2023/06/01 01:27:03;;;;;;;15.32;9.75;;;16.50;99.90;;;;;;4995564;28;20498;-71
2023/06/01 01:29:32;;;;;;;16.30;9.10;;;16.50;99.90;;;;;;4986071;28;20487;-71
2023/06/01 01:32:00;;;;;;;13.60;9.65;;;16.50;99.90;;;;;;4996240;28;20022;-71
2023/06/01 01:34:28;;;;;;;11.60;8.88;;;16.50;99.90;;;;;;4997604;28;20018;-71
2023/06/01 01:36:55;;;;;;;18.40;10.05;;;16.50;99.90;;;;;;4998528;28;20041;-71
2023/06/01 01:39:20;;;;;;;16.17;9.77;;;16.50;99.90;;;;;;4993301;28;20026;-72
2023/06/01 01:41:46;;;;;;;13.65;9.65;;;16.50;99.90;;;;;;4998476;28;20092;-71
2023/06/01 01:44:14;;;;;;;24.42;12.43;;;16.50;99.90;;;;;;4993097;28;20113;-72
2023/06/01 01:47:04;;;;;;;18.42;11.27;;;16.50;99.90;;;;;;4997868;28;20030;-72
2023/06/01 01:49:40;;;;;;;18.30;9.77;;;16.50;99.90;;;;;;4998168;28;20019;-72
2023/06/01 01:52:20;;;;;;;20.30;11.80;;;16.50;99.90;;;;;;4997947;28;20026;-71
2023/06/01 01:54:49;;;;;;;21.20;10.90;;;16.50;99.90;;;;;;4997951;28;20023;-71
2023/06/01 01:57:16;;;;;;;14.82;11.00;;;16.50;99.90;;;;;;4997664;28;20277;-71
2023/06/01 01:59:43;;;;;;;18.25;11.95;;;16.40;99.90;;;;;;4978152;28;20035;-71
2023/06/01 02:02:09;;;;;;;12.88;9.80;;;16.40;99.90;;;;;;4997613;28;20537;-71
2023/06/01 02:04:43;;;;;;;15.73;10.05;;;16.40;99.90;;;;;;5005779;28;20026;-71
2023/06/01 02:07:09;;;;;;;13.15;10.43;;;16.40;99.90;;;;;;4997612;28;20018;-71
2023/06/01 02:09:35;;;;;;;17.85;10.60;;;16.50;99.90;;;;;;4997946;28;20058;-71
2023/06/01 02:12:01;;;;;;;13.18;9.57;;;16.40;99.90;;;;;;4997596;28;20058;-71
2023/06/01 02:14:28;;;;;;;16.23;10.95;;;16.40;99.90;;;;;;4997520;28;20502;-71
2023/06/01 02:16:54;;;;;;;15.32;9.48;;;16.40;99.90;;;;;;4997435;28;20092;-71
2023/06/01 02:19:20;;;;;;;13.13;8.70;;;16.40;99.90;;;;;;4980401;28;20034;-71
2023/06/01 02:21:46;;;;;;;18.00;8.20;;;16.40;99.90;;;;;;4996454;28;20069;-71
2023/06/01 02:24:12;;;;;;;16.50;8.98;;;16.30;99.90;;;;;;4997476;28;20034;-71
2023/06/01 02:26:38;;;;;;;12.55;8.90;;;16.30;99.90;;;;;;4997314;28;20034;-71
2023/06/01 02:29:07;;;;;;;10.85;7.70;;;16.30;99.90;;;;;;4997666;28;20105;-71
2023/06/01 02:31:34;;;;;;;13.30;8.27;;;16.20;99.90;;;;;;4997032;28;20027;-71
2023/06/01 02:34:00;;;;;;;10.52;8.50;;;16.20;99.90;;;;;;4997369;28;20018;-71
2023/06/01 02:36:28;;;;;;;11.82;7.97;;;16.20;99.90;;;;;;4997464;28;20030;-71
2023/06/01 02:38:57;;;;;;;11.05;7.43;;;16.10;99.90;;;;;;4996943;28;20038;-71
2023/06/01 02:41:23;;;;;;;13.35;8.20;;;16.10;99.90;;;;;;4997259;28;20106;-71
2023/06/01 02:43:52;;;;;;;12.75;7.68;;;16.10;99.90;;;;;;4997400;28;20129;-71
2023/06/01 02:46:19;;;;;;;10.70;7.65;;;16.10;99.90;;;;;;4997139;28;20058;-71
2023/06/01 02:48:45;;;;;;;11.30;8.27;;;16.10;99.90;;;;;;4997043;28;20019;-71
2023/06/01 02:51:11;;;;;;;15.18;7.90;;;16.10;99.90;;;;;;4997510;28;20027;-71
2023/06/01 02:53:39;;;;;;;13.15;7.38;;;16.00;99.90;;;;;;4997313;28;20069;-71
2023/06/01 02:56:05;;;;;;;13.13;8.05;;;16.00;99.90;;;;;;4997104;28;20050;-71
2023/06/01 02:58:31;;;;;;;10.90;7.22;;;16.00;99.90;;;;;;4997362;28;20022;-71
2023/06/01 03:00:59;;;;;;;14.52;7.90;;;16.00;99.90;;;;;;4993641;28;20025;-71
2023/06/01 03:03:26;;;;;;;11.65;6.97;;;16.00;99.90;;;;;;4983005;28;20058;-71
2023/06/01 03:05:52;;;;;;;9.05;7.18;;;16.00;99.90;;;;;;4998383;28;20049;-71
2023/06/01 03:08:17;;;;;;;12.88;7.03;;;15.90;99.90;;;;;;4996770;28;20022;-71
2023/06/01 03:10:44;;;;;;;15.43;7.53;;;15.90;99.90;;;;;;4996887;28;20457;-71
2023/06/01 03:13:10;;;;;;;9.07;7.70;;;15.90;99.90;;;;;;4997293;28;20026;-71
2023/06/01 03:15:37;;;;;;;10.25;6.70;;;15.90;99.90;;;;;;4997056;28;20034;-71
2023/06/01 03:18:03;;;;;;;9.82;7.38;;;15.90;99.90;;;;;;4979384;28;20438;-71
2023/06/01 03:20:29;;;;;;;12.90;7.95;;;15.90;99.90;;;;;;4994291;28;20105;-71
2023/06/01 03:22:55;;;;;;;12.48;7.47;;;15.90;99.90;;;;;;4997102;28;20058;-71
2023/06/01 03:25:21;;;;;;;14.30;8.48;;;15.80;99.90;;;;;;4996899;28;20390;-71
2023/06/01 03:27:46;;;;;;;9.73;6.88;;;15.80;99.90;;;;;;4997068;28;20034;-71
2023/06/01 03:30:13;;;;;;;9.45;6.72;;;15.70;99.90;;;;;;4997178;28;20109;-71
2023/06/01 03:32:40;;;;;;;12.52;7.70;;;15.70;99.90;;;;;;4996931;28;20655;-71
2023/06/01 03:35:07;;;;;;;10.52;7.05;;;15.70;99.90;;;;;;4996806;28;20030;-71
2023/06/01 03:37:38;;;;;;;12.27;6.70;;;15.70;99.90;;;;;;4996998;28;20062;-71
2023/06/01 03:40:11;;;;;;;13.95;7.57;;;15.70;99.90;;;;;;4976031;28;20034;-71
2023/06/01 03:42:38;;;;;;;8.85;6.97;;;15.70;99.90;;;;;;4992265;28;20026;-71
2023/06/01 03:45:04;;;;;;;8.32;7.25;;;15.70;99.90;;;;;;4996535;28;20058;-71
2023/06/01 03:47:30;;;;;;;10.35;8.05;;;15.70;99.90;;;;;;4996704;28;20026;-71
2023/06/01 03:49:57;;;;;;;10.55;6.85;;;15.70;99.90;;;;;;4996790;28;20022;-71
2023/06/01 03:52:25;;;;;;;12.48;6.95;;;15.70;99.90;;;;;;4999323;28;20438;-71
2023/06/01 03:54:51;;;;;;;10.48;7.40;;;15.70;99.90;;;;;;4982537;28;20442;-71
2023/06/01 03:57:16;;;;;;;12.30;7.95;;;15.70;99.90;;;;;;5000044;28;20089;-71
2023/06/01 03:59:42;;;;;;;10.10;6.95;;;15.70;99.90;;;;;;5000321;28;20081;-71
2023/06/01 04:02:09;;;;;;;12.07;7.63;;;15.70;99.90;;;;;;4999883;28;20024;-71
2023/06/01 04:04:35;;;;;;;9.85;7.55;;;15.70;99.90;;;;;;5002507;28;20018;-71
2023/06/01 04:07:02;;;;;;;15.75;9.32;;;15.70;99.90;;;;;;5000023;28;20390;-71
2023/06/01 04:09:29;;;;;;;11.05;8.27;;;15.70;99.90;;;;;;4972921;28;20034;-71
2023/06/01 04:11:55;;;;;;;11.00;7.68;;;15.70;99.90;;;;;;4982285;28;20018;-71
2023/06/01 04:14:21;;;;;;;10.23;7.85;;;15.70;99.90;;;;;;5000027;28;20033;-71
2023/06/01 04:16:47;;;;;;;11.02;8.18;;;15.70;99.90;;;;;;4999546;28;20029;-71
2023/06/01 04:19:12;;;;;;;9.20;8.15;;;15.70;99.90;;;;;;5002308;28;20030;-71
2023/06/01 04:21:38;;;;;;;10.10;8.02;;;15.70;99.90;;;;;;4999605;28;20026;-71
2023/06/01 04:24:04;;;;;;;10.63;7.88;;;15.70;99.90;;;;;;4999802;28;20034;-71
2023/06/01 04:26:31;;;;;;;10.93;7.90;;;15.70;99.90;;;;;;4999442;28;20034;-71
2023/06/01 04:29:02;;;;;;;13.63;8.35;;;15.70;99.90;;;;;;4982096;28;20407;-71
2023/06/01 04:31:28;;;;;;;12.45;9.13;;;15.60;99.90;;;;;;4999137;28;20025;-71
2023/06/01 04:33:56;;;;;;;13.07;9.13;;;15.60;99.90;;;;;;4999725;28;20034;-71
2023/06/01 04:36:22;;;;;;;10.57;8.23;;;15.70;99.90;;;;;;4999530;28;20558;-70
2023/06/01 04:38:54;;;;;;;14.70;9.18;;;15.70;99.90;;;;;;4999645;28;20030;-71
2023/06/01 04:41:23;;;;;;;11.77;8.63;;;15.70;99.90;;;;;;4981802;28;20022;-71
2023/06/01 04:43:52;;;;;;;12.48;8.85;;;15.80;99.90;;;;;;4999499;28;20030;-71
2023/06/01 04:46:24;;;;;;;13.60;8.23;;;15.80;99.90;;;;;;4980820;28;20031;-70
2023/06/01 04:48:57;;;;;;;11.40;8.95;;;15.80;99.90;;;;;;4999513;28;20053;-70
2023/06/01 04:51:23;;;;;;;9.82;8.40;;;15.90;99.90;;;;;;4992730;28;20046;-71
2023/06/01 04:53:51;;;;;;;11.20;9.00;;;15.90;99.90;;;;;;4999317;28;20049;-71
2023/06/01 04:56:26;;;;;;;12.45;8.48;;;15.90;99.90;;;;;;5000904;28;20046;-70
2023/06/01 04:58:56;;;;;;;13.35;8.75;;;15.90;99.90;;;;;;4998947;28;20026;-70
2023/06/01 05:01:25;;;;;;;11.55;9.20;;;16.00;99.90;;;;;;4998846;28;20114;-71
2023/06/01 05:03:54;;;;;;;13.40;9.40;;;16.00;99.90;;;;;;5001621;28;20026;-71
2023/06/01 05:06:21;;;;;;;12.88;8.45;;;16.00;99.90;;;;;;4999180;28;20034;-71
2023/06/01 05:08:47;;;;;;;12.63;8.70;;;15.90;99.90;;;;;;4981245;28;20057;-71
2023/06/01 05:11:13;;;;;;;12.98;8.55;;;16.00;99.90;;;;;;4998942;28;20038;-71
2023/06/01 05:13:40;;;;;;;11.88;8.85;;;16.00;99.90;;;;;;4998684;28;20038;-71
2023/06/01 05:16:07;;;;;;;12.43;8.18;;;16.00;99.90;;;;;;4998885;28;20022;-71
2023/06/01 05:18:33;;;;;;;12.07;8.93;;;16.10;99.90;;;;;;4998467;28;20445;-71
2023/06/01 05:20:59;;;;;;;21.13;9.63;;;16.10;99.90;;;;;;4979950;28;20018;-71
2023/06/01 05:23:27;;;;;;;11.45;9.38;;;16.20;99.90;;;;;;4998596;28;20049;-71
2023/06/01 05:25:59;;;;;;;13.10;8.88;;;16.30;99.90;;;;;;4998326;28;20081;-71
2023/06/01 05:28:25;;;;;;;12.77;8.88;;;16.30;99.90;;;;;;4998358;28;20022;-71
2023/06/01 05:30:51;;;;;;;15.52;8.82;;;16.30;99.90;;;;;;4998487;28;20072;-71
2023/06/01 05:33:16;;;;;;;12.30;8.70;;;16.40;99.90;;;;;;4998133;28;20435;-71
2023/06/01 05:35:42;;;;;;;13.70;8.95;;;16.50;99.90;;;;;;4998416;28;20101;-71
2023/06/01 05:38:07;;;;;;;13.88;9.02;;;16.50;99.90;;;;;;4998264;28;20069;-71
2023/06/01 05:40:33;;;;;;;14.93;8.88;;;16.50;99.90;;;;;;4998129;28;20034;-71
2023/06/01 05:42:59;;;;;;;14.52;9.57;;;16.60;99.90;;;;;;4998254;28;20038;-71
2023/06/01 05:45:24;;;;;;;14.90;9.25;;;16.70;99.90;;;;;;4980590;28;20501;-71
2023/06/01 05:47:50;;;;;;;13.45;10.10;;;16.70;99.90;;;;;;4997994;28;20022;-71
2023/06/01 05:50:15;;;;;;;13.68;8.80;;;16.70;99.90;;;;;;4998069;28;20050;-71
2023/06/01 05:52:42;;;;;;;13.32;8.90;;;16.80;99.90;;;;;;4998292;28;20026;-71
2023/06/01 05:55:08;;;;;;;12.10;9.05;;;16.80;99.90;;;;;;4998012;28;20092;-71
2023/06/01 05:57:34;;;;;;;11.25;9.20;;;16.90;99.90;;;;;;4997529;28;20054;-71
2023/06/01 05:59:59;;;;;;;17.65;9.07;;;16.90;99.90;;;;;;4998077;28;20022;-70
2023/06/01 06:02:25;;;;;;;11.75;8.07;;;16.90;99.90;;;;;;4980106;28;20034;-71
2023/06/01 06:04:51;;;;;;;12.13;8.73;;;16.90;99.90;;;;;;5002449;28;20022;-71
2023/06/01 06:07:16;;;;;;;12.10;8.68;;;17.00;99.90;;;;;;4980187;28;20026;-71
2023/06/01 06:09:42;;;;;;;14.00;8.57;;;17.20;99.90;;;;;;4997950;28;20050;-70
2023/06/01 06:12:08;;;;;;;10.32;8.40;;;17.30;99.90;;;;;;4997564;28;20049;-70
2023/06/01 06:14:33;;;;;;;14.98;8.98;;;17.30;99.90;;;;;;4991048;28;20018;-71
2023/06/01 06:17:00;;;;;;;12.02;8.10;;;17.40;99.90;;;;;;4997481;28;20034;-71
2023/06/01 06:19:25;;;;;;;10.70;7.65;;;17.60;99.90;;;;;;4997683;28;20018;-71
2023/06/01 06:21:51;;;;;;;14.38;8.45;;;17.70;99.90;;;;;;4997650;28;20033;-71
2023/06/01 06:24:17;;;;;;;11.60;7.47;;;17.90;99.90;;;;;;4997499;28;20026;-71
2023/06/01 06:26:42;;;;;;;11.95;7.50;;;18.10;99.90;;;;;;4997313;28;20030;-71
2023/06/01 06:29:08;;;;;;;11.25;7.10;;;18.30;99.90;;;;;;4997457;28;20505;-70
2023/06/01 06:31:33;;;;;;;15.18;7.25;;;18.30;99.90;;;;;;4997362;28;20034;-70
2023/06/01 06:34:00;;;;;;;9.55;7.53;;;18.20;99.90;;;;;;4997424;28;20019;-70
2023/06/01 06:36:25;;;;;;;9.07;7.05;;;18.30;99.90;;;;;;4976750;28;20035;-70
2023/06/01 06:38:51;;;;;;;11.25;7.53;;;18.20;99.90;;;;;;4997116;28;20105;-71
2023/06/01 06:41:17;;;;;;;8.90;6.53;;;18.20;99.90;;;;;;4997259;28;20062;-68
2023/06/01 06:43:42;;;;;;;13.02;6.25;;;18.30;99.90;;;;;;4996279;28;20030;-70
2023/06/01 06:46:08;;;;;;;8.65;7.00;;;18.40;99.90;;;;;;4997150;28;20049;-71
2023/06/01 06:48:34;;;;;;;11.27;6.60;;;18.30;99.90;;;;;;4997146;28;20077;-70
2023/06/01 06:50:59;;;;;;;10.93;7.35;;;18.30;99.90;;;;;;4997286;28;20030;-71
2023/06/01 06:53:25;;;;;;;11.05;7.05;;;18.30;99.90;;;;;;4997608;28;20030;-71
2023/06/01 06:55:51;;;;;;;9.93;6.13;;;18.30;99.90;;;;;;4997106;28;20030;-71
2023/06/01 06:58:16;;;;;;;15.25;7.63;;;18.10;99.90;;;;;;4976427;28;20051;-71
2023/06/01 07:00:43;;;;;;;11.82;6.78;;;18.10;99.90;;;;;;4994846;28;20038;-71
2023/06/01 07:03:10;;;;;;;15.43;7.90;;;18.20;99.90;;;;;;4995989;28;20030;-68
2023/06/01 07:05:35;;;;;;;14.65;7.35;;;18.30;99.90;;;;;;4994920;28;20026;-69
2023/06/01 07:08:01;;;;;;;10.23;6.90;;;18.20;99.90;;;;;;4997133;28;20018;-69
2023/06/01 07:10:27;;;;;;;11.35;7.35;;;18.30;99.90;;;;;;4996951;28;20435;-69
2023/06/01 07:12:52;;;;;;;10.27;7.30;;;18.40;99.90;;;;;;4997105;28;20022;-69
2023/06/01 07:15:18;;;;;;;11.85;6.88;;;18.40;99.90;;;;;;4996966;28;20030;-69
2023/06/01 07:17:44;;;;;;;10.75;5.80;;;18.40;99.90;;;;;;4976178;28;20030;-69
2023/06/01 07:20:13;;;;;;;9.85;6.55;;;18.40;99.90;;;;;;4993880;28;20036;-69
2023/06/01 07:22:39;;;;;;;9.98;6.22;;;18.40;99.90;;;;;;4997026;28;20101;-71
2023/06/01 07:25:06;;;;;;;10.50;6.32;;;18.50;99.90;;;;;;4979012;28;20061;-69
2023/06/01 07:27:34;;;;;;;7.30;6.05;;;18.60;99.90;;;;;;5000831;28;20019;-70
2023/06/01 07:30:02;;;;;;;11.38;6.22;;;18.70;99.90;;;;;;4982110;28;20066;-69
2023/06/01 07:32:28;;;;;;;12.07;6.60;;;19.00;99.90;;;;;;5000397;28;20399;-69
2023/06/01 07:34:53;;;;;;;8.35;5.72;;;19.30;99.90;;;;;;5000591;28;20023;-70
2023/06/01 07:37:21;;;;;;;12.75;6.18;;;19.40;99.90;;;;;;5000724;28;20102;-70
2023/06/01 07:39:48;;;;;;;9.68;5.78;;;19.60;99.90;;;;;;5000511;28;20025;-70
2023/06/01 07:42:15;;;;;;;10.98;6.55;;;19.70;99.90;;;;;;5000616;28;20054;-70
2023/06/01 07:44:40;;;;;;;14.25;5.80;;;19.70;99.90;;;;;;5000578;28;20038;-70
2023/06/01 07:47:06;;;;;;;11.65;6.57;;;19.60;99.90;;;;;;5000217;28;20026;-70
2023/06/01 07:49:35;;;;;;;13.32;6.30;;;19.40;99.90;;;;;;4982690;28;20022;-70
2023/06/01 07:52:01;;;;;;;10.70;6.38;;;19.20;99.90;;;;;;5000701;28;20022;-70
2023/06/01 07:54:26;;;;;;;10.82;6.32;;;19.10;99.90;;;;;;5000367;28;20022;-70
2023/06/01 07:56:53;;;;;;;7.13;5.47;;;19.20;99.90;;;;;;5000149;28;20588;-70
2023/06/01 07:59:21;;;;;;;8.45;5.25;;;19.30;99.90;;;;;;5000027;28;20030;-70
2023/06/01 08:01:48;;;;;;;9.82;5.72;;;19.40;99.90;;;;;;5000335;28;20022;-71
2023/06/01 08:04:14;;;;;;;9.93;5.65;;;19.60;99.90;;;;;;5006364;28;20029;-72
2023/06/01 08:06:41;;;;;;;9.25;5.53;;;19.60;99.90;;;;;;5000687;28;20104;-72
2023/06/01 08:09:07;;;;;;;8.35;5.55;;;19.70;99.90;;;;;;4999094;28;20096;-72
2023/06/01 08:11:33;;;;;;;8.90;5.55;;;19.80;99.90;;;;;;4999856;28;20019;-72
2023/06/01 08:14:04;;;;;;;7.35;4.90;;;19.80;99.90;;;;;;4992998;28;20054;-71
2023/06/01 08:16:30;;;;;;;9.30;6.32;;;19.80;99.90;;;;;;5005767;28;20081;-72
2023/06/01 08:18:56;;;;;;;10.43;6.70;;;19.70;99.90;;;;;;4981297;28;20030;-72
2023/06/01 08:21:23;;;;;;;7.38;5.32;;;19.70;99.90;;;;;;4999385;28;20034;-72
2023/06/01 08:23:51;;;;;;;7.53;5.88;;;19.80;99.90;;;;;;4998797;28;20030;-72
2023/06/01 08:26:18;;;;;;;6.80;5.43;;;19.70;99.90;;;;;;4981889;28;20030;-72
2023/06/01 08:28:51;;;;;;;9.50;5.82;;;19.60;99.90;;;;;;4999785;28;20033;-73
2023/06/01 08:31:20;;;;;;;6.97;5.28;;;19.70;99.90;;;;;;4999315;28;20076;-72
2023/06/01 08:33:46;;;;;;;9.35;4.70;;;20.00;99.90;;;;;;4999426;28;20029;-71
2023/06/01 08:36:12;;;;;;;12.10;5.38;;;20.20;99.90;;;;;;4981564;28;20046;-71
2023/06/01 08:38:39;;;;;;;8.45;5.15;;;20.10;99.90;;;;;;4999062;28;20026;-71
2023/06/01 08:41:29;;;;;;;15.45;7.47;;;20.30;99.90;;;;;;4999256;28;20030;-70
2023/06/01 08:44:00;;;;;;;;;;;20.20;99.90;;;;;;4981709;28;20038;-70
2023/06/01 08:46:26;;;;;;;;;;;20.40;99.90;;;;;;4999268;28;19916;-71
2023/06/01 08:48:55;;;;;;;7.78;5.00;;;20.60;99.90;;;;;;4999338;28;19905;-70
2023/06/01 08:51:24;;;;;;;10.82;5.63;;;20.50;99.90;;;;;;4999354;28;20053;-71
2023/06/01 08:53:52;;;;;;;9.27;5.82;;;20.70;99.90;;;;;;4998835;28;20026;-71
2023/06/01 08:56:21;;;;;;;6.78;4.85;;;20.50;99.90;;;;;;4998634;28;20035;-70
2023/06/01 08:58:47;;;;;;;8.32;5.70;;;20.60;99.90;;;;;;4998894;28;20097;-71
2023/06/01 09:01:20;;;;;;;10.05;6.05;;;20.80;99.90;;;;;;4998243;28;20525;-70
2023/06/01 09:03:47;;;;;;;7.32;4.80;;;20.80;99.90;;;;;;4997562;28;20010;-71
2023/06/01 09:06:13;;;;;;;6.32;4.68;;;20.90;99.90;;;;;;5004222;28;20053;-71
2023/06/01 09:08:38;;;;;;;7.45;4.53;;;21.00;99.90;;;;;;4998927;28;20026;-71
2023/06/01 09:11:04;;;;;;;7.75;5.20;;;21.00;99.90;;;;;;4998687;28;20081;-71
2023/06/01 09:13:39;;;;;;;9.48;4.65;;;21.10;99.90;;;;;;4998924;28;20022;-71
2023/06/01 09:16:06;;;;;;;6.55;5.15;;;21.30;99.90;;;;;;4980535;28;20069;-71
2023/06/01 09:18:32;;;;;;;9.20;5.30;;;21.50;99.90;;;;;;4998549;28;20050;-71
2023/06/01 09:21:15;;;;;;;9.00;4.78;;;21.50;99.90;;;;;;4998657;28;20101;-71
2023/06/01 09:23:42;;;;;;;7.53;4.60;;;21.70;99.90;;;;;;4998702;28;20026;-72
2023/06/01 09:26:13;;;;;;;10.60;5.60;;;21.60;99.90;;;;;;4998291;28;20117;-71
2023/06/01 09:29:00;;;;;;;5.72;4.53;;;21.60;99.90;;;;;;4989260;28;20045;-72
2023/06/01 09:31:41;;;;;;;8.00;5.13;;;21.40;99.90;;;;;;4998021;28;20018;-71
2023/06/01 09:34:15;;;;;;;8.70;5.00;;;21.30;99.90;;;;;;4998766;28;20022;-70
2023/06/01 09:36:41;;;;;;;4.90;3.95;;;21.20;99.90;;;;;;4998381;28;20030;-71
2023/06/01 09:39:10;;;;;;;8.45;4.93;;;21.20;99.90;;;;;;4990589;28;20030;-71
2023/06/01 09:41:55;;;;;;;9.25;5.07;;;21.10;99.90;;;;;;4985733;28;20022;-71
2023/06/01 09:44:24;;;;;;;7.18;4.57;;;21.20;99.90;;;;;;4997953;28;20046;-72
2023/06/01 09:46:53;;;;;;;8.50;5.00;;;21.20;99.90;;;;;;4998138;28;20053;-72
2023/06/01 09:49:29;;;;;;;6.15;4.13;;;21.30;99.90;;;;;;4997262;28;20026;-71
2023/06/01 09:52:04;;;;;;;8.93;5.20;;;21.50;99.90;;;;;;4998278;28;20022;-72
2023/06/01 09:54:35;;;;;;;6.55;4.65;;;21.90;99.90;;;;;;4998056;28;20022;-72
2023/06/01 09:57:02;;;;;;;8.38;4.88;;;22.00;99.90;;;;;;4988496;28;20418;-72
2023/06/01 09:59:29;;;;;;;7.60;4.55;;;22.50;99.90;;;;;;5017867;28;20033;-72
2023/06/01 10:01:57;;;;;;;7.10;4.57;;;22.70;99.90;;;;;;5016967;28;20033;-73
2023/06/01 10:04:27;;;;;;;5.22;4.10;;;22.90;99.90;;;;;;5022530;28;20040;-72
2023/06/01 10:06:56;;;;;;;6.85;4.63;;;22.90;99.90;;;;;;5017452;28;20114;-72
2023/06/01 10:09:24;;;;;;;7.35;4.35;;;22.80;99.90;;;;;;4998723;28;20499;-72
2023/06/01 10:11:55;;;;;;;6.90;5.00;;;22.60;99.90;;;;;;4999690;28;20140;-72
2023/06/01 10:14:22;;;;;;;8.15;4.75;;;22.60;99.90;;;;;;5017450;28;20068;-73
2023/06/01 10:16:53;;;;;;;10.40;6.20;;;22.80;99.90;;;;;;5017079;28;20046;-73
2023/06/01 10:19:20;;;;;;;6.85;4.22;;;22.90;99.90;;;;;;5005792;28;20109;-72
2023/06/01 10:21:47;;;;;;;7.75;5.28;;;23.10;99.90;;;;;;5017390;28;20030;-72
2023/06/01 10:24:14;;;;;;;8.15;4.82;;;23.30;99.90;;;;;;5017256;28;20028;-72
2023/06/01 10:26:58;;;;;;;7.65;4.55;;;23.30;99.90;;;;;;4999420;28;20084;-72
2023/06/01 10:29:25;;;;;;;7.45;4.55;;;23.30;99.90;;;;;;5017183;28;20014;-72
2023/06/01 10:31:51;;;;;;;7.07;4.80;;;23.10;99.90;;;;;;5017060;28;20022;-72
2023/06/01 10:34:44;;;;;;;7.00;4.47;;;23.30;99.90;;;;;;5017081;28;20018;-71
2023/06/01 10:37:14;;;;;;;8.98;5.47;;;23.20;99.90;;;;;;5016969;28;20026;-72
2023/06/01 10:39:40;;;;;;;7.03;5.13;;;23.20;99.90;;;;;;5017140;28;20056;-72
2023/06/01 10:42:12;;;;;;;10.30;4.93;;;23.00;99.90;;;;;;5016842;28;20034;-72
2023/06/01 10:44:40;;;;;;;6.75;4.35;;;23.00;99.90;;;;;;5016894;28;20037;-72
2023/06/01 10:47:26;;;;;;;8.57;4.95;;;23.10;99.90;;;;;;4999177;28;20045;-73
2023/06/01 10:49:52;;;;;;;7.57;4.47;;;23.10;99.90;;;;;;5016989;28;20022;-73
2023/06/01 10:52:26;;;;;;;7.13;4.75;;;23.00;99.90;;;;;;5017095;28;20117;-72
2023/06/01 10:55:05;;;;;;;5.68;4.22;;;22.80;99.90;;;;;;5016900;28;20018;-73
2023/06/01 10:57:35;;;;;;;7.47;4.85;;;22.80;99.90;;;;;;5003760;28;20050;-73
2023/06/01 11:00:27;;;;;;;7.53;4.63;;;22.90;99.90;;;;;;4996668;28;20023;-73
2023/06/01 11:03:02;;;;;;;7.47;4.50;;;22.70;99.90;;;;;;4992415;28;20038;-72
2023/06/01 11:05:37;;;;;;;6.68;4.70;;;22.70;99.90;;;;;;5003267;28;20034;-73
2023/06/01 11:08:07;;;;;;;6.75;4.72;;;22.70;99.90;;;;;;4983813;28;20104;-72
2023/06/01 11:10:51;;;;;;;7.10;4.53;;;23.00;99.90;;;;;;4983430;28;20026;-73
2023/06/01 11:13:39;;;;;;;8.50;5.53;;;23.30;99.90;;;;;;5001117;28;20027;-73
2023/06/01 11:16:09;;;;;;;11.82;5.40;;;23.60;99.90;;;;;;4991907;28;20394;-73
2023/06/01 11:18:41;;;;;;;6.97;4.35;;;23.60;99.90;;;;;;5000911;28;20026;-71
2023/06/01 11:21:12;;;;;;;8.35;5.68;;;23.70;99.90;;;;;;4993185;28;20026;-72
2023/06/01 11:23:38;;;;;;;8.68;4.60;;;23.60;99.90;;;;;;5000759;28;20054;-72
2023/06/01 11:26:07;;;;;;;7.15;4.63;;;23.70;99.90;;;;;;4999802;28;20510;-72
2023/06/01 11:28:35;;;;;;;7.60;4.82;;;23.50;99.90;;;;;;5000794;28;20023;-72
2023/06/01 11:31:02;;;;;;;6.70;4.30;;;23.80;99.90;;;;;;5000583;28;20111;-72
2023/06/01 11:33:29;;;;;;;12.10;5.18;;;24.60;99.90;;;;;;4979953;28;20082;-71
2023/06/01 11:36:05;;;;;;;6.28;4.90;;;24.70;99.90;;;;;;4997290;28;20117;-72
2023/06/01 11:38:41;;;;;;;8.27;4.50;;;24.20;99.90;;;;;;5000765;28;20038;-73
2023/06/01 11:41:08;;;;;;;7.72;5.75;;;24.40;99.90;;;;;;5000242;28;20038;-73
2023/06/01 11:43:34;;;;;;;7.18;5.57;;;24.30;99.90;;;;;;5000577;28;20390;-73
2023/06/01 11:46:09;;;;;;;7.60;5.20;;;24.20;99.90;;;;;;5000067;28;20096;-73
2023/06/01 11:48:35;;;;;;;6.97;4.88;;;23.90;99.90;;;;;;5000609;28;20394;-73
2023/06/01 11:51:01;;;;;;;7.38;4.90;;;23.80;99.90;;;;;;5000336;28;20029;-73
2023/06/01 11:53:29;;;;;;;6.65;5.15;;;23.80;99.90;;;;;;4982993;28;20446;-73
2023/06/01 11:55:55;;;;;;;7.10;5.13;;;23.70;99.90;;;;;;5000133;28;20394;-73
2023/06/01 11:58:29;;;;;;;6.05;4.28;;;23.60;99.90;;;;;;5000097;28;20057;-72
2023/06/01 12:00:57;;;;;;;8.63;5.15;;;23.60;99.90;;;;;;5000022;28;20028;-72
2023/06/01 12:03:26;;;;;;;7.03;4.95;;;23.60;99.90;;;;;;5000077;28;20014;-73
2023/06/01 12:05:52;;;;;;;6.65;5.20;;;23.60;99.90;;;;;;4993302;28;20086;-73
2023/06/01 12:08:23;;;;;;;7.60;4.60;;;23.60;99.90;;;;;;4999903;28;20592;-72
2023/06/01 12:10:50;;;;;;;10.85;5.10;;;23.50;99.90;;;;;;4999813;28;20097;-72
2023/06/01 12:13:17;;;;;;;8.30;5.43;;;23.50;99.90;;;;;;4999027;28;20502;-73
2023/06/01 12:15:44;;;;;;;9.02;5.15;;;23.60;99.90;;;;;;5000157;28;20050;-72
2023/06/01 12:18:10;;;;;;;7.05;5.13;;;23.60;99.90;;;;;;4982207;28;20106;-73
2023/06/01 12:20:41;;;;;;;7.22;4.55;;;23.70;99.90;;;;;;4999673;28;20177;-73
2023/06/01 12:23:15;;;;;;;8.63;5.10;;;23.80;99.90;;;;;;4999894;28;20022;-73
2023/06/01 12:25:55;;;;;;;6.32;5.18;;;24.00;99.90;;;;;;4999450;28;20109;-73
2023/06/01 12:28:25;;;;;;;7.85;4.40;;;24.40;99.90;;;;;;4999597;28;20026;-72
2023/06/01 12:31:10;;;;;;;6.50;4.40;;;24.40;99.90;;;;;;4999645;28;20026;-73
2023/06/01 12:33:36;;;;;;;8.70;5.18;;;24.20;99.90;;;;;;4978852;28;20027;-72
2023/06/01 12:36:03;;;;;;;7.93;4.72;;;23.80;99.90;;;;;;4999236;28;20026;-73
2023/06/01 12:38:52;;;;;;;7.13;5.40;;;23.70;99.90;;;;;;4999401;28;20491;-72
2023/06/01 12:41:19;;;;;;;9.82;5.60;;;23.50;99.90;;;;;;4999370;28;20113;-73
2023/06/01 12:43:45;;;;;;;6.28;4.25;;;23.20;99.90;;;;;;4999336;28;20022;-73
2023/06/01 12:46:22;;;;;;;5.47;4.32;;;23.20;99.90;;;;;;4999207;28;20061;-72
2023/06/01 12:48:48;;;;;;;7.80;5.10;;;23.20;99.90;;;;;;4999174;28;20022;-73